Tiempo atmosférico en la estación meteorológica de Guadalcanal, Sevilla (745 m.)



Fecha
DESCASC
Temp. máxima en grados centígrados (hora)
DESCASC
Temp. mínima en grados centígrados (hora)
DESCASC
Temp. media en grados centígrados
DESCASC
Racha de viento máxima en m/sg (hora)
DESCASC
Velocidad máxima media en intervalos de 10 minutos(hora)
DESCASC
Precipitaciones diarias en mm
DESCASC
Precipitaciones de 00:00 a 06:00 en mm
DESCASC
Precipitaciones de 06:00 a 12:00 en mm
DESCASC
Precipitaciones de 12:00 a 18:00 en mm
DESCASC
Precipitaciones de 18:00 a 24:00 en mm
DESCASC
25-04-2019 13.4 (19:00) 7.4 (08:30) 10.4 15 (00:40) 8.89 (00:40) 5.8 5 0.4 0.4 0
24-04-2019 11.2 (17:50) 4.1 (01:40) 7.6 16.39 (15:30) 10.56 (17:10) 8.6 0 0.4 3.8 4.4
23-04-2019 11.7 (00:00) 4.2 (23:00) 7.9 14.17 (16:20) 6.67 (03:40) 12.4 7.2 1.6 3.2 0.4
22-04-2019 19.6 (16:00) 6.1 (00:00) 12.9 11.39 (17:10) 5 (18:30) 0 0 0 0 0
21-04-2019 14.7 (16:20) 6.1 (00:00) 10.4 10 (11:30) 5.56 (03:00) 0 0 0 0 0
20-04-2019 12 (14:00) 6.1 (00:00) 9 15 (16:10) 6.67 (17:00) 2.2 0 1.8 0 0.4
19-04-2019 16.4 (16:10) 6.6 (00:00) 11.5 8.89 (18:00) 4.17 (18:00) 3.2 0 1 0.4 1.8
18-04-2019 13.8 (15:00) 7 (00:00) 10.4 8.61 (19:10) 5 (19:20) 2.2 0 0.2 0.6 1.4
17-04-2019 17.9 (15:10) 9.5 (00:00) 13.7 13.61 (16:40) 8.06 (18:20) 0.4 0 0 0 0.4
16-04-2019 21.6 (16:20) 8.8 (00:00) 15.2 10 (20:00) 5.56 (20:00) 0 0 0 0 0
15-04-2019 22.8 (16:00) 12.2 (00:00) 17.5 12.22 (15:30) 6.39 (15:10) 0 0 0 0 0
14-04-2019 22.6 (18:10) 11.1 (00:00) 16.9 7.22 (00:50) 5.28 (06:10) 0 0 0 0 0
13-04-2019 21.7 (17:50) 10.8 (00:00) 16.3 7.78 (22:20) 4.72 (22:20) 0 0 0 0 0
12-04-2019 19.4 (18:10) 8.2 (00:00) 13.8 10.83 (12:10) 4.17 (07:30) 0 0 0 0 0
11-04-2019 16.4 (18:30) 5.6 (00:00) 11 10.28 (01:40) 5.56 (08:30) 0 0 0 0 0
10-04-2019 14.5 (17:50) 5.5 (00:00) 10 9.72 (16:40) 4.72 (13:20) 0 0 0 0 0
09-04-2019 13.1 (17:40) 4.6 (00:00) 8.9 10.28 (17:50) 5 (17:20) 2.4 0 0.8 1 0.6
08-04-2019 14 (16:50) 8 (00:00) 11 8.89 (19:10) 5.28 (10:40) 9 1.2 6.8 1 0
07-04-2019 9.9 (22:10) 5.4 (00:00) 7.6 8.33 (01:10) 5.56 (16:40) 5.8 0.8 0.6 1.6 2.8
06-04-2019 10.9 (16:00) 4 (00:00) 7.4 10.83 (15:30) 5 (15:10) 6 0 1 3.2 1.8
05-04-2019 11 (17:40) 4.4 (00:00) 7.7 11.67 (16:10) 5.56 (16:10) 9.4 1.2 3 0 5.2
04-04-2019 16.2 (18:10) 2.6 (00:00) 9.4 10.28 (08:30) 6.39 (08:30) 0 0 0 0 0
03-04-2019 18.5 (16:10) 7.2 (07:20) 12.8 9.17 (16:20) 4.72 (23:59) 0 0 0 0 0
02-04-2019 19.1 (17:50) 7 (00:00) 13.1 5.56 (17:40) 2.78 (17:40) 0 0 0 0 0
01-04-2019 15.8 (16:20) 9.1 (00:00) 12.5 9.17 (18:20) 5.28 (16:30) 1 0 0.4 0.6 0
31-03-2019 15.7 (13:30) 8 (00:00) 11.8 6.94 (16:20) 3.33 (16:20) 1.2 0.8 0 0.4 0
30-03-2019 21.1 (17:10) 7.2 (00:00) 14.2 7.78 (13:30) 4.17 (21:10) 0 0 0 0 0
29-03-2019 19.2 (17:20) 5.8 (00:00) 12.5 8.06 (10:00) 4.44 (10:00) 0 0 0 0 0
28-03-2019 18.8 (17:20) 6.1 (00:00) 12.4 10.28 (12:00) 4.72 (14:40) 0 0 0 0 0
27-03-2019 20 (15:20) 7.2 (00:00) 13.6 8.89 (13:30) 4.44 (09:50) 0 0 0 0 0

Gráficas

Temp. máximas Temp. mínimas Temp. medias Precipitaciones Rachas de viento máximas Velocidades máximas media en intervalos de 10 minutos

Datos horarios

Fecha y hora oficial Temperatura (ºC) Velocidad del viento (km/h) Dirección del viento Racha (km/h) Dirección de racha Precipitación (mm) Presión (hPa) Tendencia (hPa) Humedad (%)
2019-04-25 23:00:00 9.1 8 Noroeste 16 Noroeste 0 -- -- 73
2019-04-25 22:00:00 9.8 4 Noroeste 12 Noroeste 0 -- -- 74
2019-04-25 21:00:00 10.6 6 Noroeste 29 Oeste 0 -- -- 68
2019-04-25 20:00:00 12 12 Noroeste 37 Oeste 0 -- -- 61
2019-04-25 19:00:00 13.4 16 Oeste 35 Noroeste 0 -- -- 56
2019-04-25 18:00:00 13 13 Oeste 34 Oeste 0.2 -- -- 64
2019-04-25 17:00:00 13.3 16 Sudoeste 31 Oeste 0 -- -- 68
2019-04-25 16:00:00 10.7 13 Oeste 36 Oeste 0.2 -- -- 84
2019-04-25 15:00:00 11.2 15 Oeste 36 Oeste 0 -- -- 71
2019-04-25 14:00:00 11.7 16 Oeste 32 Oeste 0 -- -- 74
2019-04-25 13:00:00 10.1 17 Oeste 31 Oeste 0 -- -- 79
2019-04-25 12:00:00 8.1 10 Oeste 28 Oeste 0.2 -- -- 91
2019-04-25 11:00:00 9.3 10 Sudoeste 26 Oeste 0 -- -- 92
2019-04-25 10:00:00 8.2 11 Sudoeste 21 Sudoeste 0 -- -- 98
2019-04-25 09:00:00 7.6 7 Oeste 23 Oeste 0 -- -- 100
2019-04-25 08:00:00 7.8 13 Sudoeste 27 Sudoeste 0 -- -- 100
2019-04-25 07:00:00 8.4 9 Sudoeste 23 Sudoeste 0.2 -- -- 100
2019-04-25 06:00:00 8.4 14 Sudoeste 27 Oeste 0 -- -- 100
2019-04-25 05:00:00 8.4 12 Sudoeste 26 Sudoeste 0 -- -- 100
2019-04-25 04:00:00 8.9 13 Oeste 33 Oeste 0.8 -- -- 100
2019-04-25 03:00:00 9.8 13 Sudoeste 37 Oeste 0.4 -- -- 100
2019-04-25 02:00:00 10.8 22 Sudoeste 46 Sudoeste 3 -- -- 100
2019-04-25 01:00:00 10.8 25 Sudoeste 54 Sudoeste 0.8 -- -- 100
2019-04-25 00:00:00 10.9 33 Sudoeste 50 Sudoeste 0.2 -- -- 100
2019-04-24 23:00:00 11 27 Sudoeste 45 Sudoeste 0 -- -- 100
2019-04-24 22:00:00 11.1 26 Sudoeste 46 Sudoeste 0.2 -- -- 100
2019-04-24 21:00:00 11 21 Sudoeste 41 Sudoeste 0.2 -- -- 100
2019-04-24 20:00:00 11.1 20 Sudoeste 48 Oeste 3.4 -- -- 100
2019-04-24 19:00:00 10.9 30 Sudoeste 57 Sudoeste 0.4 -- -- 100
2019-04-24 18:00:00 11.2 27 Sudoeste 58 Sudoeste 1.4 -- -- 99
2019-04-24 17:00:00 10.8 34 Sudoeste 58 Sudoeste 0.4 -- -- 99
2019-04-24 16:00:00 10.8 35 Sudoeste 59 Sudoeste 0.4 -- -- 99
2019-04-24 15:00:00 10.4 32 Sudoeste 59 Sudoeste 0.2 -- -- 100
2019-04-24 14:00:00 10.2 29 Sudoeste 50 Sudoeste 0.6 -- -- 100
2019-04-24 13:00:00 9.4 26 Sudoeste 47 Sudoeste 0.8 -- -- 100
2019-04-24 12:00:00 8.8 28 Sudoeste 51 Sur 0.2 -- -- 99
2019-04-24 11:00:00 8 30 Sudoeste 47 Sudoeste 0 -- -- 99
2019-04-24 10:00:00 7.7 28 Sudoeste 50 Sudoeste 0 -- -- 97
2019-04-24 09:00:00 7 23 Sudoeste 45 Sudoeste 0 -- -- 98
2019-04-24 08:00:00 6.7 24 Sudoeste 40 Sudoeste 0 -- -- 99
2019-04-24 07:00:00 6 22 Sudoeste 40 Sudoeste 0.2 -- -- 98
2019-04-24 06:00:00 5.5 22 Sudoeste 32 Sudoeste 0 -- -- 98
2019-04-24 05:00:00 5.3 16 Sudoeste 24 Sudoeste 0 -- -- 98
2019-04-24 04:00:00 4.6 6 Sudoeste 13 Sudoeste 0 -- -- 98
2019-04-24 03:00:00 4.5 7 Sudoeste 12 Sudoeste 0 -- -- 97
2019-04-24 02:00:00 4.3 6 Sudoeste 10 Sudoeste 0 -- -- 97
2019-04-24 01:00:00 4.4 5 Sudoeste 13 Sudoeste 0 -- -- 96
2019-04-24 00:00:00 4.8 6 Sudoeste 12 Sudoeste 0.2 -- -- 95
2019-04-23 23:00:00 4.2 3 Sudoeste 15 Sudoeste 0 -- -- 92
2019-04-23 22:00:00 5.2 8 Sudoeste 27 Noroeste 0.2 -- -- 89
2019-04-23 21:00:00 6.7 12 Noroeste 28 Oeste 0 -- -- 77
2019-04-23 20:00:00 9 12 Oeste 33 Oeste 0 -- -- 66
2019-04-23 19:00:00 9.9 13 Oeste 33 Oeste 0 -- -- 62
2019-04-23 18:00:00 9.4 13 Sudoeste 32 Oeste 0 -- -- 67
2019-04-23 17:00:00 9.2 15 Oeste 51 Oeste 0.4 -- -- 76
2019-04-23 16:00:00 10.2 17 Oeste 32 Oeste 0 -- -- 69
2019-04-23 15:00:00 9.1 14 Sudoeste 32 Oeste 1 -- -- 78
2019-04-23 14:00:00 7.7 6 Oeste 25 Norte 0.8 -- -- 93
2019-04-23 13:00:00 6.9 12 Oeste 33 Oeste 1 -- -- 84
2019-04-23 12:00:00 8 13 Oeste 33 Noroeste 0.2 -- -- 82
2019-04-23 11:00:00 7.7 15 Oeste 28 Oeste 0 -- -- 78
2019-04-23 10:00:00 6.1 9 Oeste 27 Oeste 0 -- -- 92
2019-04-23 09:00:00 5.7 9 Oeste 30 Noroeste 0 -- -- 92
2019-04-23 08:00:00 6.1 10 Noroeste 24 Noroeste 0.2 -- -- 93
2019-04-23 07:00:00 6.6 9 Oeste 23 Oeste 1.2 -- -- 94
2019-04-23 06:00:00 7.5 6 Noroeste 33 Oeste 7 -- -- 93
2019-04-23 05:00:00 9.2 17 Sudoeste 33 Sudoeste 0.2 -- -- 96
2019-04-23 04:00:00 9.6 22 Sudoeste 39 Sudoeste 0 -- -- 91
2019-04-23 03:00:00 10.5 17 Sudoeste 32 Sudoeste 0 -- -- 91
2019-04-23 02:00:00 10.9 19 Sudoeste 31 Sudoeste 0 -- -- 90
2019-04-23 01:00:00 11.2 19 Sudoeste 32 Sudoeste 0 -- -- 90
2019-04-23 00:00:00 11.7 14 Sudoeste 23 Sur 0 -- -- 80
2019-04-22 23:00:00 13 13 Sudoeste 28 Sudoeste 0 -- -- 68
2019-04-22 22:00:00 14.2 12 Sudoeste 21 Sudoeste 0 -- -- 62
2019-04-22 21:00:00 15.7 13 Sudoeste 27 Sudoeste 0 -- -- 54
2019-04-22 20:00:00 17 12 Sudoeste 33 Sudoeste 0 -- -- 49
2019-04-22 19:00:00 18.1 13 Oeste 33 Oeste 0 -- -- 40
2019-04-22 18:00:00 18.8 18 Oeste 41 Oeste 0 -- -- 41
2019-04-22 17:00:00 19.3 14 Oeste 33 Oeste 0 -- -- 39
2019-04-22 16:00:00 19.6 18 Sudoeste 39 Oeste 0 -- -- 34
2019-04-22 15:00:00 18.4 12 Sudoeste 26 Sudoeste 0 -- -- 51
2019-04-22 14:00:00 17.3 11 Oeste 30 Oeste 0 -- -- 57
2019-04-22 13:00:00 15.9 12 Sudoeste 24 Sudoeste 0 -- -- 60
2019-04-22 12:00:00 14.4 10 Sudoeste 19 Sudoeste 0 -- -- 62
2019-04-22 11:00:00 11.9 7 Sudoeste 11 Sudoeste 0 -- -- 71
2019-04-22 10:00:00 10.9 6 Sudoeste 9 Sudoeste 0 -- -- 75
2019-04-22 09:00:00 9.3 0 Calma 5 Nordeste 0 -- -- 84
2019-04-22 08:00:00 6.2 3 Nordeste 5 Nordeste 0 -- -- 90
2019-04-22 07:00:00 6.8 0 Calma 7 Nordeste 0 -- -- 86
2019-04-22 06:00:00 7.4 5 Norte 8 Norte 0 -- -- 84
2019-04-22 05:00:00 7.8 5 Norte 7 Norte 0 -- -- 81
2019-04-22 04:00:00 8 4 Norte 6 Noroeste 0 -- -- 82
2019-04-22 03:00:00 9.3 3 Norte 9 Nordeste 0 -- -- 80
2019-04-22 02:00:00 9.7 5 Nordeste 8 Nordeste 0 -- -- 79
2019-04-22 01:00:00 10.2 4 Nordeste 8 Nordeste 0 -- -- 75
2019-04-22 00:00:00 10.4 4 Nordeste 9 Nordeste 0 -- -- 75
2019-04-21 23:00:00 10.6 4 Nordeste 9 Nordeste 0 -- -- 73
2019-04-21 22:00:00 11 3 Nordeste 9 Norte 0 -- -- 71
2019-04-21 21:00:00 11.9 6 Nordeste 15 Nordeste 0 -- -- 65
2019-04-21 20:00:00 12.6 8 Nordeste 26 Nordeste 0 -- -- 62
2019-04-21 19:00:00 13.7 13 Nordeste 26 Este 0 -- -- 61
2019-04-21 18:00:00 13.9 16 Nordeste 29 Nordeste 0 -- -- 60
2019-04-21 17:00:00 14.1 13 Nordeste 31 Este 0 -- -- 59
2019-04-21 16:00:00 14.6 12 Nordeste 30 Nordeste 0 -- -- 60
2019-04-21 15:00:00 13.2 14 Nordeste 34 Este 0 -- -- 63
2019-04-21 14:00:00 14 14 Nordeste 35 Nordeste 0 -- -- 64
2019-04-21 13:00:00 12.9 12 Nordeste 36 Este 0 -- -- 66
2019-04-21 12:00:00 11.2 15 Nordeste 36 Nordeste 0 -- -- 72
2019-04-21 11:00:00 9.2 15 Nordeste 34 Nordeste 0 -- -- 80
2019-04-21 10:00:00 6.8 12 Nordeste 24 Nordeste 0 -- -- 89
2019-04-21 09:00:00 6.2 11 Nordeste 20 Nordeste 0 -- -- 92
2019-04-21 08:00:00 6.3 9 Nordeste 21 Nordeste 0 -- -- 91
2019-04-21 07:00:00 6.5 8 Norte 18 Norte 0 -- -- 90
2019-04-21 06:00:00 7.1 11 Nordeste 20 Nordeste 0 -- -- 90
2019-04-21 05:00:00 7.9 13 Norte 27 Nordeste 0 -- -- 88
2019-04-21 04:00:00 8.4 17 Nordeste 27 Nordeste 0 -- -- 87
2019-04-21 03:00:00 8.7 20 Nordeste 28 Nordeste 0 -- -- 87
2019-04-21 02:00:00 9 16 Nordeste 26 Nordeste 0 -- -- 86
2019-04-21 01:00:00 9.4 19 Nordeste 30 Norte 0 -- -- 83
2019-04-21 00:00:00 9.3 17 Nordeste 28 Norte 0 -- -- 83
2019-04-20 23:00:00 9.1 18 Nordeste 35 Nordeste 0 -- -- 85
2019-04-20 22:00:00 8.9 15 Nordeste 33 Este 0.4 -- -- 89
2019-04-20 21:00:00 9.4 13 Este 40 Este 0 -- -- 89
2019-04-20 20:00:00 10 19 Nordeste 50 Nordeste 0 -- -- 85
2019-04-20 19:00:00 10.2 15 Nordeste 47 Sudeste 0 -- -- 86
2019-04-20 18:00:00 10.9 17 Nordeste 45 Este 0 -- -- 81
2019-04-20 17:00:00 11.4 24 Nordeste 54 Nordeste 0 -- -- 76
2019-04-20 16:00:00 11 19 Nordeste 51 Este 0 -- -- 80
2019-04-20 15:00:00 11.3 20 Nordeste 46 Nordeste 0 -- -- 78
2019-04-20 14:00:00 12 15 Nordeste 44 Nordeste 0 -- -- 75
2019-04-20 13:00:00 11.1 19 Nordeste 38 Este 0 -- -- 80
2019-04-20 12:00:00 -- 14 Nordeste 30 Nordeste 0 -- -- --
2019-04-20 11:00:00 9 16 Nordeste 34 Norte 0 -- -- 99
2019-04-20 10:00:00 8.1 16 Nordeste 33 Norte 1.4 -- -- 99
2019-04-20 09:00:00 7.5 16 Nordeste 30 Nordeste 0.4 -- -- 98
2019-04-20 08:00:00 7 13 Nordeste 26 Nordeste 0 -- -- 98
2019-04-20 07:00:00 6.8 15 Nordeste 28 Nordeste 0 -- -- 98
2019-04-20 06:00:00 -- 14 Nordeste 28 Nordeste 0 -- -- --
2019-04-20 05:00:00 6.1 15 Nordeste 23 Norte 0 -- -- 97
2019-04-20 04:00:00 6.5 11 Nordeste 21 Nordeste 0 -- -- 96
2019-04-20 03:00:00 7 12 Nordeste 21 Nordeste 0 -- -- 96
2019-04-20 02:00:00 7.4 12 Norte 19 Norte 0 -- -- 95
2019-04-20 01:00:00 8.2 12 Nordeste 17 Nordeste 0 -- -- 94
2019-04-20 00:00:00 8.5 10 Norte 18 Norte 0 -- -- 94
2019-04-19 23:00:00 8.9 9 Nordeste 18 Norte 0 -- -- 92
2019-04-19 22:00:00 9.2 15 Norte 22 Norte 0 -- -- 91
2019-04-19 21:00:00 8.8 3 Nordeste 9 Noroeste 0 -- -- 89
2019-04-19 20:00:00 9.9 6 Oeste 12 Noroeste 0 -- -- 86
2019-04-19 19:00:00 10 8 Noroeste 32 Este 1.8 -- -- 88
2019-04-19 18:00:00 11.3 15 Sudeste 32 Sudeste 0.2 -- -- 80
2019-04-19 17:00:00 14.4 9 Sur 14 Sur 0 -- -- 66
2019-04-19 16:00:00 16.2 5 Sur 15 Sur 0 -- -- 63
2019-04-19 15:00:00 15.4 6 Sur 13 Sudoeste 0 -- -- 63
2019-04-19 14:00:00 12.8 4 Sudeste 9 Este 0 -- -- 73
2019-04-19 13:00:00 12.1 5 Sur 13 Sur 0.2 -- -- 77
2019-04-19 12:00:00 9.8 5 Este 12 Este 0.6 -- -- 94
2019-04-19 11:00:00 9.6 5 Nordeste 12 Oeste 0 -- -- 91
2019-04-19 10:00:00 9.3 3 Sudoeste 8 Oeste 0 -- -- 95
2019-04-19 09:00:00 8.2 4 Oeste 8 Oeste 0.2 -- -- 97
2019-04-19 08:00:00 7.8 2 Sudoeste 3 Oeste 0 -- -- 96
2019-04-19 07:00:00 8 0 Calma 3 Sudoeste 0.2 -- -- 96
2019-04-19 06:00:00 7.9 0 Calma 5 Oeste 0 -- -- 96
2019-04-19 05:00:00 7.8 2 Sudoeste 10 Oeste 0 -- -- 96
2019-04-19 04:00:00 7.4 5 Oeste 15 Oeste 0 -- -- 96
2019-04-19 03:00:00 7 0 Calma 18 Noroeste 0 -- -- 89
2019-04-19 02:00:00 8.4 5 Noroeste 17 Norte 0 -- -- 83
2019-04-19 01:00:00 7.6 3 Sudoeste 17 Oeste 0 -- -- 87
2019-04-19 00:00:00 8.1 7 Oeste 22 Oeste 0 -- -- 84
2019-04-18 23:00:00 7.9 5 Oeste 15 Noroeste 0 -- -- 83
2019-04-18 22:00:00 7 2 Oeste 9 Oeste 0 -- -- 87
2019-04-18 21:00:00 8.4 4 Sudoeste 27 Oeste 0 -- -- 82
2019-04-18 20:00:00 9.7 13 Oeste 31 Sudoeste 1.4 -- -- 80
2019-04-18 19:00:00 10.8 15 Sudoeste 28 Sudoeste 0 -- -- 78
2019-04-18 18:00:00 10.1 8 Sudoeste 12 Sudoeste 0 -- -- 84
2019-04-18 17:00:00 8.8 5 Nordeste 23 Nordeste 0.6 -- -- 89
2019-04-18 16:00:00 11.7 7 Nordeste 14 Norte 0 -- -- 76
2019-04-18 15:00:00 13.8 6 Oeste 19 Sudoeste 0 -- -- 61
2019-04-18 14:00:00 12.1 9 Sudoeste 15 Sudoeste 0 -- -- 75
2019-04-18 13:00:00 11.1 5 Sudoeste 10 Sudoeste 0 -- -- 83
2019-04-18 12:00:00 10.1 5 Sudoeste 13 Oeste 0.2 -- -- 87
2019-04-18 11:00:00 9.7 8 Oeste 21 Oeste 0 -- -- 93
2019-04-18 10:00:00 9.5 7 Sudoeste 13 Oeste 0 -- -- 94
2019-04-18 09:00:00 8.8 3 Oeste 8 Oeste 0 -- -- 95
2019-04-18 08:00:00 8.3 4 Oeste 8 Oeste 0 -- -- 95
2019-04-18 07:00:00 8.1 3 Sudoeste 9 Oeste 0 -- -- 94
2019-04-18 06:00:00 8.1 4 Sudoeste 9 Sudoeste 0 -- -- 94
2019-04-18 05:00:00 8.2 4 Sudoeste 8 Sudoeste 0 -- -- 93
2019-04-18 04:00:00 9 2 Sur 10 Sudoeste 0 -- -- 92
2019-04-18 03:00:00 8.7 6 Sudoeste 21 Sudoeste 0 -- -- 92
2019-04-18 02:00:00 8.9 12 Sudoeste 23 Sudoeste 0 -- -- 88
2019-04-18 01:00:00 9.1 13 Sudoeste 24 Sudoeste 0 -- -- 89
2019-04-18 00:00:00 9.5 12 Sudoeste 20 Sur 0 -- -- 86
2019-04-17 23:00:00 9.7 13 Sudoeste 32 Sur 0 -- -- 85
2019-04-17 22:00:00 10.1 16 Sudoeste 26 Sur 0.2 -- -- 83
2019-04-17 21:00:00 10.2 10 Sudoeste 19 Sudoeste 0.2 -- -- 85
2019-04-17 20:00:00 11.1 12 Sudoeste 33 Sudoeste 0 -- -- 80
2019-04-17 19:00:00 13.1 23 Sudoeste 43 Sudoeste 0 -- -- 83
2019-04-17 18:00:00 14.8 22 Sudoeste 43 Sudoeste 0 -- -- 72
2019-04-17 17:00:00 16.1 22 Sudoeste 49 Sur 0 -- -- 66
2019-04-17 16:00:00 16.3 21 Sudoeste 46 Sudoeste 0 -- -- 66
2019-04-17 15:00:00 17.7 26 Sudoeste 46 Sudoeste 0 -- -- 57
2019-04-17 14:00:00 17 24 Sudoeste 40 Sudoeste 0 -- -- 57
2019-04-17 13:00:00 16.2 15 Sudoeste 28 Sudoeste 0 -- -- 55
2019-04-17 12:00:00 15.6 17 Sudoeste 32 Sur 0 -- -- 54
2019-04-17 11:00:00 14.8 17 Sur 28 Sur 0 -- -- 53
2019-04-17 10:00:00 13.3 15 Sur 33 Sur 0 -- -- 58
2019-04-17 09:00:00 12.3 19 Sur 37 Sudoeste 0 -- -- 62
2019-04-17 08:00:00 12.2 16 Sur 30 Sur 0 -- -- 58
2019-04-17 07:00:00 13.4 19 Sur 35 Sur 0 -- -- 50
2019-04-17 06:00:00 13.2 20 Sur 35 Sur 0 -- -- 49
2019-04-17 05:00:00 11.9 18 Sur 30 Sudoeste 0 -- -- 57
2019-04-17 04:00:00 12 15 Sur 30 Sur 0 -- -- 61
2019-04-17 03:00:00 13.3 21 Sur 33 Sudoeste 0 -- -- 66
2019-04-17 02:00:00 14 17 Sur 29 Sur 0 -- -- 59
2019-04-17 01:00:00 14.4 12 Sur 25 Sudoeste 0 -- -- 59
2019-04-17 00:00:00 15 15 Sudoeste 23 Sur 0 -- -- 60
2019-04-16 23:00:00 15.4 9 Sudoeste 31 Sudoeste 0 -- -- 53
2019-04-16 22:00:00 17 18 Sudoeste 29 Sur 0 -- -- 48
2019-04-16 21:00:00 17.7 15 Sur 33 Sudoeste 0 -- -- 47
2019-04-16 20:00:00 19.5 20 Sudoeste 36 Sudoeste 0 -- -- 41
2019-04-16 19:00:00 20.7 17 Sudoeste 32 Sur 0 -- -- 37
2019-04-16 18:00:00 21.3 17 Sur 28 Sur 0 -- -- 33
2019-04-16 17:00:00 21.1 14 Sudoeste 30 Sudoeste 0 -- -- 32
2019-04-16 16:00:00 21.2 16 Sudoeste 26 Sudoeste 0 -- -- 36
2019-04-16 15:00:00 20.2 12 Sur 24 Sudoeste 0 -- -- 39
2019-04-16 14:00:00 18.9 12 Sur 22 Sur 0 -- -- 48
2019-04-16 13:00:00 17.5 15 Sur 28 Sudoeste 0 -- -- 51
2019-04-16 12:00:00 16.1 9 Sur 18 Sudoeste 0 -- -- 52
2019-04-16 11:00:00 14.3 10 Sudoeste 17 Sudoeste 0 -- -- 64
2019-04-16 10:00:00 12.1 5 Sudeste 16 Este 0 -- -- 76
2019-04-16 09:00:00 10.2 9 Este 16 Este 0 -- -- 81
2019-04-16 08:00:00 8.9 10 Nordeste 14 Norte 0 -- -- 88
2019-04-16 07:00:00 8.9 10 Nordeste 15 Nordeste 0 -- -- 88
2019-04-16 06:00:00 -- 10 Nordeste 18 Norte 0 -- -- --
2019-04-16 05:00:00 9.5 15 Norte 24 Norte 0 -- -- 88
2019-04-16 04:00:00 10 14 Norte 23 Norte 0 -- -- 87
2019-04-16 03:00:00 10.5 10 Norte 25 Norte 0 -- -- 84
2019-04-16 02:00:00 9.8 2 Sudoeste 10 Norte 0 -- -- 81
2019-04-16 01:00:00 12.2 11 Norte 18 Norte 0 -- -- 70
2019-04-16 00:00:00 12.2 4 Noroeste 19 Oeste 0 -- -- 73
2019-04-15 23:00:00 13 2 Noroeste 13 Noroeste 0 -- -- 70
2019-04-15 22:00:00 13.5 6 Noroeste 19 Oeste 0 -- -- 66
2019-04-15 21:00:00 14.6 8 Noroeste 30 Noroeste 0 -- -- 63
2019-04-15 20:00:00 16.3 12 Noroeste 28 Oeste 0 -- -- 65
2019-04-15 19:00:00 17.8 11 Noroeste 34 Oeste 0 -- -- 61
2019-04-15 18:00:00 19.7 15 Oeste 40 Oeste 0 -- -- 51
2019-04-15 17:00:00 20.6 17 Noroeste 33 Noroeste 0 -- -- 47
2019-04-15 16:00:00 22.8 16 Sudoeste 44 Sudoeste 0 -- -- 42
2019-04-15 15:00:00 22.1 22 Sudoeste 35 Sudoeste 0 -- -- 37
2019-04-15 14:00:00 21.2 17 Sudoeste 32 Sur 0 -- -- 44
2019-04-15 13:00:00 20.1 13 Sudoeste 22 Sudoeste 0 -- -- 47
2019-04-15 12:00:00 18.3 10 Sudoeste 22 Sudoeste 0 -- -- 53
2019-04-15 11:00:00 16.5 14 Sudoeste 31 Sudoeste 0 -- -- 63
2019-04-15 10:00:00 15.2 15 Sudoeste 27 Sudoeste 0 -- -- 71
2019-04-15 09:00:00 15.4 17 Sudoeste 31 Sudoeste 0 -- -- 71
2019-04-15 08:00:00 15.7 15 Sur 26 Sur 0 -- -- 70
2019-04-15 07:00:00 15.4 12 Sur 20 Sur 0 -- -- 71
2019-04-15 06:00:00 14.6 9 Sudoeste 14 Sudoeste 0 -- -- 74
2019-04-15 05:00:00 15.1 9 Sudoeste 17 Sur 0 -- -- 72
2019-04-15 04:00:00 13.8 6 Sudoeste 14 Sur 0 -- -- 77
2019-04-15 03:00:00 14.7 3 Sudoeste 10 Sudoeste 0 -- -- 74
2019-04-15 02:00:00 15.2 4 Sudoeste 6 Sudoeste 0 -- -- 74
2019-04-15 01:00:00 16.3 4 Sudoeste 9 Sudoeste 0 -- -- 72
2019-04-15 00:00:00 16.7 4 Sudoeste 9 Sudoeste 0 -- -- 70
2019-04-14 23:00:00 16.9 5 Sudoeste 10 Sudoeste 0 -- -- 70
2019-04-14 22:00:00 17.8 6 Sudoeste 13 Sudoeste 0 -- -- 67
2019-04-14 21:00:00 19.3 7 Sudoeste 14 Sur 0 -- -- 63
2019-04-14 20:00:00 20.7 8 Sudoeste 15 Sudoeste 0 -- -- 58
2019-04-14 19:00:00 22.2 8 Sudoeste 15 Sudoeste 0 -- -- 54
2019-04-14 18:00:00 22.4 6 Oeste 18 Oeste 0 -- -- 54
2019-04-14 17:00:00 22 8 Sudoeste 18 Sudoeste 0 -- -- 53
2019-04-14 16:00:00 21.4 4 Sudeste 21 Sudoeste 0 -- -- 53
2019-04-14 15:00:00 21.3 8 Sur 21 Sur 0 -- -- 54
2019-04-14 14:00:00 19.9 8 Sudoeste 23 Oeste 0 -- -- 60
2019-04-14 13:00:00 18.7 8 Sudoeste 18 Sudoeste 0 -- -- 67
2019-04-14 12:00:00 16.3 4 Este 13 Nordeste 0 -- -- 79
2019-04-14 11:00:00 13 6 Norte 12 Nordeste 0 -- -- 94
2019-04-14 10:00:00 11.7 6 Norte 12 Norte 0 -- -- 97
2019-04-14 09:00:00 11.3 6 Nordeste 12 Nordeste 0 -- -- 98
2019-04-14 08:00:00 11.4 5 Nordeste 17 Norte 0 -- -- 97
2019-04-14 07:00:00 11.2 7 Nordeste 24 Norte 0 -- -- 97
2019-04-14 06:00:00 11.2 18 Norte 25 Norte 0 -- -- 95
2019-04-14 05:00:00 11.8 12 Norte 20 Norte 0 -- -- 92
2019-04-14 04:00:00 11.9 12 Norte 22 Norte 0 -- -- 91
2019-04-14 03:00:00 12.6 12 Norte 19 Norte 0 -- -- 86
2019-04-14 02:00:00 12.9 9 Norte 22 Noroeste 0 -- -- 85
2019-04-14 01:00:00 14.3 13 Norte 26 Noroeste 0 -- -- 63
2019-04-14 00:00:00 13.9 0 Calma 21 Noroeste 0 -- -- 55
2019-04-13 23:00:00 15.5 13 Norte 28 Norte 0 -- -- 47
2019-04-13 22:00:00 15.7 11 Norte 20 Norte 0 -- -- 48
2019-04-13 21:00:00 16.8 7 Norte 14 Norte 0 -- -- 49
2019-04-13 20:00:00 19.3 8 Norte 20 Oeste 0 -- -- 42
2019-04-13 19:00:00 20.2 8 Noroeste 21 Oeste 0 -- -- 39
2019-04-13 18:00:00 21.6 11 Oeste 23 Oeste 0 -- -- 36
2019-04-13 17:00:00 21.3 12 Sudoeste 23 Sudoeste 0 -- -- 37
2019-04-13 16:00:00 20.7 12 Oeste 27 Sudoeste 0 -- -- 38
2019-04-13 15:00:00 20.1 10 Sudoeste 23 Sudoeste 0 -- -- 38
2019-04-13 14:00:00 18.8 9 Sudoeste 21 Sudoeste 0 -- -- 39
2019-04-13 13:00:00 17.5 8 Sudoeste 18 Sudoeste 0 -- -- 45
2019-04-13 12:00:00 15.7 6 Norte 15 Norte 0 -- -- 50
2019-04-13 11:00:00 14.5 10 Norte 17 Norte 0 -- -- 58
2019-04-13 10:00:00 13.1 9 Norte 19 Norte 0 -- -- 66
2019-04-13 09:00:00 11.9 10 Norte 17 Norte 0 -- -- 69
2019-04-13 08:00:00 10.8 9 Norte 19 Norte 0 -- -- 69
2019-04-13 07:00:00 11.5 12 Norte 20 Noroeste 0 -- -- 65
2019-04-13 06:00:00 11.9 12 Norte 23 Norte 0 -- -- 59
2019-04-13 05:00:00 11.9 13 Norte 22 Noroeste 0 -- -- 57
2019-04-13 04:00:00 12.3 12 Norte 20 Norte 0 -- -- 52
2019-04-13 03:00:00 11.6 9 Norte 17 Norte 0 -- -- 53
2019-04-13 02:00:00 11.7 6 Norte 11 Norte 0 -- -- 51
2019-04-13 01:00:00 12.1 7 Norte 13 Norte 0 -- -- 46
2019-04-13 00:00:00 12.2 9 Norte 16 Norte 0 -- -- 49
2019-04-12 23:00:00 12.9 9 Norte 21 Norte 0 -- -- 50
2019-04-12 22:00:00 13.5 9 Norte 15 Norte 0 -- -- 44
2019-04-12 21:00:00 14.3 8 Norte 15 Norte 0 -- -- 42
2019-04-12 20:00:00 16.9 9 Norte 18 Norte 0 -- -- 38
2019-04-12 19:00:00 18.3 7 Norte 18 Noroeste 0 -- -- 36
2019-04-12 18:00:00 19.2 10 Oeste 21 Oeste 0 -- -- 33
2019-04-12 17:00:00 19 5 Oeste 19 Oeste 0 -- -- 34
2019-04-12 16:00:00 18.6 7 Nordeste 24 Oeste 0 -- -- 36
2019-04-12 15:00:00 18.1 7 Oeste 22 Sudoeste 0 -- -- 42
2019-04-12 14:00:00 -- 5 Sudoeste 18 Sudoeste 0 -- -- --
2019-04-12 13:00:00 16 5 Oeste 39 Nordeste 0 -- -- 42
2019-04-12 12:00:00 15 4 Noroeste 12 Norte 0 -- -- 44
2019-04-12 11:00:00 13.2 6 Norte 12 Norte 0 -- -- 47
2019-04-12 10:00:00 10.8 7 Nordeste 15 Nordeste 0 -- -- 68
2019-04-12 09:00:00 9 10 Nordeste 20 Norte 0 -- -- 68
2019-04-12 08:00:00 8.4 14 Norte 21 Norte 0 -- -- 70
2019-04-12 07:00:00 8.2 11 Norte 21 Norte 0 -- -- 73
2019-04-12 06:00:00 8.8 10 Norte 16 Norte 0 -- -- 65
2019-04-12 05:00:00 9.3 6 Norte 15 Noroeste 0 -- -- 61
2019-04-12 04:00:00 9.8 11 Norte 19 Noroeste 0 -- -- 61
2019-04-12 03:00:00 9.8 13 Norte 27 Noroeste 0 -- -- 70
2019-04-12 02:00:00 10.3 14 Norte 26 Norte 0 -- -- 71
2019-04-12 01:00:00 10.7 5 Noroeste 14 Norte 0 -- -- 54
2019-04-12 00:00:00 11 8 Noroeste 13 Noroeste 0 -- -- 53
2019-04-11 23:00:00 10.4 0 Calma 11 Norte 0 -- -- 61
2019-04-11 22:00:00 11.6 6 Noroeste 12 Noroeste 0 -- -- 55
2019-04-11 21:00:00 12.5 4 Noroeste 12 Norte 0 -- -- 53
2019-04-11 20:00:00 14.6 8 Norte 21 Norte 0 -- -- 42
2019-04-11 19:00:00 15.9 10 Norte 21 Norte 0 -- -- 39
2019-04-11 18:00:00 16 12 Norte 26 Norte 0 -- -- 42
2019-04-11 17:00:00 15.5 8 Norte 21 Norte 0 -- -- 46
2019-04-11 16:00:00 15.2 8 Noroeste 21 Norte 0 -- -- 45
2019-04-11 15:00:00 15.5 7 Norte 23 Norte 0 -- -- 50
2019-04-11 14:00:00 14.3 9 Norte 16 Norte 0 -- -- 54
2019-04-11 13:00:00 13.1 8 Noroeste 19 Norte 0 -- -- 63
2019-04-11 12:00:00 11.1 8 Norte 15 Nordeste 0 -- -- 73
2019-04-11 11:00:00 9.2 8 Norte 21 Norte 0 -- -- 80
2019-04-11 10:00:00 7.8 13 Norte 26 Norte 0 -- -- 86
2019-04-11 09:00:00 6 18 Norte 28 Norte 0 -- -- 92
2019-04-11 08:00:00 5.6 19 Norte 29 Norte 0 -- -- 93
2019-04-11 07:00:00 5.9 14 Norte 31 Norte 0 -- -- 91
2019-04-11 06:00:00 6.8 17 Norte 26 Norte 0 -- -- 83
2019-04-11 05:00:00 7.1 8 Norte 25 Norte 0 -- -- 81
2019-04-11 04:00:00 7.2 9 Noroeste 24 Noroeste 0 -- -- 81
2019-04-11 03:00:00 7.4 11 Norte 32 Noroeste 0 -- -- 85
2019-04-11 02:00:00 8.1 17 Noroeste 37 Noroeste 0 -- -- 81
2019-04-11 01:00:00 8.7 17 Noroeste 32 Noroeste 0 -- -- 79
2019-04-11 00:00:00 9.3 14 Noroeste 31 Norte 0 -- -- 77
2019-04-10 23:00:00 9.8 9 Noroeste 23 Norte 0 -- -- 74
2019-04-10 22:00:00 10.5 10 Noroeste 20 Noroeste 0 -- -- 69
2019-04-10 21:00:00 11.3 8 Noroeste 20 Norte 0 -- -- 65
2019-04-10 20:00:00 12.8 8 Noroeste 26 Noroeste 0 -- -- 56
2019-04-10 19:00:00 13.6 14 Noroeste 29 Norte 0 -- -- 55
2019-04-10 18:00:00 13.9 12 Noroeste 28 Noroeste 0 -- -- 55
2019-04-10 17:00:00 13.4 12 Noroeste 35 Oeste 0 -- -- 61
2019-04-10 16:00:00 13.2 13 Norte 31 Noroeste 0 -- -- 57
2019-04-10 15:00:00 12.9 15 Norte 33 Norte 0 -- -- 60
2019-04-10 14:00:00 12.1 13 Noroeste 32 Noroeste 0 -- -- 68
2019-04-10 13:00:00 10.7 10 Norte 27 Norte 0 -- -- 72
2019-04-10 12:00:00 9.1 10 Norte 25 Norte 0 -- -- 80
2019-04-10 11:00:00 8 10 Norte 28 Nordeste 0 -- -- 86
2019-04-10 10:00:00 6.7 11 Norte 24 Noroeste 0 -- -- 90
2019-04-10 09:00:00 6.3 9 Noroeste 24 Noroeste 0 -- -- 92
2019-04-10 08:00:00 5.5 8 Noroeste 19 Noroeste 0 -- -- 90
2019-04-10 07:00:00 5.6 7 Noroeste 19 Noroeste 0 -- -- 91
2019-04-10 06:00:00 6.1 8 Noroeste 30 Noroeste 0 -- -- 88
2019-04-10 05:00:00 6.9 7 Noroeste 25 Noroeste 0 -- -- 87
2019-04-10 04:00:00 -- 8 Noroeste 21 Norte 0 -- -- --
2019-04-10 03:00:00 6.7 9 Noroeste 24 Noroeste 0 -- -- 87
2019-04-10 02:00:00 6.9 7 Noroeste 23 Noroeste 0 -- -- 87
2019-04-10 01:00:00 7.6 12 Noroeste 24 Noroeste 0 -- -- 84
2019-04-10 00:00:00 8.1 9 Noroeste 22 Noroeste 0 -- -- 82
2019-04-09 23:00:00 8.8 10 Noroeste 24 Oeste 0 -- -- 79
2019-04-09 22:00:00 9.2 5 Oeste 14 Oeste 0 -- -- 85
2019-04-09 21:00:00 9.9 5 Oeste 31 Oeste 0 -- -- 83
2019-04-09 20:00:00 10.1 7 Sudoeste 22 Oeste 0 -- -- 78
2019-04-09 19:00:00 9.4 10 Oeste 37 Oeste 0.6 -- -- 79
2019-04-09 18:00:00 12.7 17 Oeste 37 Oeste 0 -- -- 62
2019-04-09 17:00:00 12.5 16 Oeste 36 Noroeste 0 -- -- 66
2019-04-09 16:00:00 12.7 17 Oeste 31 Oeste 0 -- -- 62
2019-04-09 15:00:00 11.6 16 Oeste 32 Oeste 0 -- -- 73
2019-04-09 14:00:00 10.2 11 Oeste 31 Oeste 0.2 -- -- 83
2019-04-09 13:00:00 10.6 12 Oeste 27 Oeste 0.8 -- -- 81
2019-04-09 12:00:00 8.7 10 Oeste 23 Oeste 0.4 -- -- 88
2019-04-09 11:00:00 8.6 12 Oeste 27 Oeste 0 -- -- 87
2019-04-09 10:00:00 7 9 Oeste 18 Oeste 0 -- -- 98
2019-04-09 09:00:00 5.7 0 Calma 6 Sudoeste 0.4 -- -- 97
2019-04-09 08:00:00 4.6 0 Calma 11 Oeste 0 -- -- 95
2019-04-09 07:00:00 5.5 3 Sudoeste 8 Oeste 0 -- -- 95
2019-04-09 06:00:00 5.5 3 Oeste 16 Sudoeste 0 -- -- 95
2019-04-09 05:00:00 5.7 5 Sudoeste 12 Sudoeste 0 -- -- 95
2019-04-09 04:00:00 6.3 6 Sudoeste 17 Oeste 0 -- -- 93
2019-04-09 03:00:00 6.4 5 Oeste 14 Oeste 0 -- -- 93
2019-04-09 02:00:00 6.6 5 Oeste 20 Oeste 0 -- -- 89
2019-04-09 01:00:00 7.4 9 Oeste 23 Oeste 0 -- -- 86
2019-04-09 00:00:00 8 3 Oeste 20 Noroeste 0 -- -- 87
2019-04-08 23:00:00 8.7 8 Noroeste 30 Norte 0 -- -- 83
2019-04-08 22:00:00 9.7 9 Norte 21 Norte 0 -- -- 77
2019-04-08 21:00:00 11 8 Oeste 28 Noroeste 0 -- -- 64
2019-04-08 20:00:00 12.8 13 Oeste 32 Oeste 0 -- -- 67
2019-04-08 19:00:00 13.2 12 Sudoeste 30 Oeste 0 -- -- 72
2019-04-08 18:00:00 13 14 Oeste 30 Sudoeste 0 -- -- 75
2019-04-08 17:00:00 13.8 15 Sudoeste 27 Sur 0 -- -- 72
2019-04-08 16:00:00 12.7 12 Sudoeste 22 Sudoeste 0 -- -- 84
2019-04-08 15:00:00 11.8 9 Oeste 19 Sudoeste 0.4 -- -- 92
2019-04-08 14:00:00 11.5 10 Oeste 18 Oeste 0 -- -- 99
2019-04-08 13:00:00 10.7 8 Oeste 20 Sudoeste 0.6 -- -- 100
2019-04-08 12:00:00 9.8 8 Oeste 27 Sudoeste 4.2 -- -- 100
2019-04-08 11:00:00 9.9 16 Sudoeste 31 Sudoeste 0 -- -- 100
2019-04-08 10:00:00 9.4 13 Sudoeste 28 Sudoeste 1.6 -- -- 100
2019-04-08 09:00:00 9.1 14 Sudoeste 26 Sudoeste 0.4 -- -- 100
2019-04-08 08:00:00 8.8 9 Sudoeste 24 Sudoeste 0 -- -- 100
2019-04-08 07:00:00 8.6 13 Sudoeste 19 Sudoeste 0.6 -- -- 100
2019-04-08 06:00:00 8.6 10 Sudoeste 19 Sudoeste 0.2 -- -- 100
2019-04-08 05:00:00 8.8 13 Sudoeste 24 Sudoeste 0 -- -- 100
2019-04-08 04:00:00 9 14 Sudoeste 24 Sudoeste 0 -- -- 100
2019-04-08 03:00:00 9.3 10 Sudoeste 19 Sudoeste 0.2 -- -- 100
2019-04-08 02:00:00 9.5 10 Sudoeste 27 Oeste 0.6 -- -- 100
2019-04-08 01:00:00 9.4 10 Sudoeste 18 Sur 0.2 -- -- 100
2019-04-08 00:00:00 9.6 8 Sudoeste 13 Sudoeste 0 -- -- 100
2019-04-07 23:00:00 9.9 5 Sudoeste 10 Sudoeste 0 -- -- 100
2019-04-07 22:00:00 9.8 5 Sudoeste 16 Sudoeste 0.2 -- -- 100
2019-04-07 21:00:00 9.7 5 Oeste 17 Sudoeste 1.8 -- -- 99
2019-04-07 20:00:00 9.7 10 Sudoeste 21 Sudoeste 0.8 -- -- 99
2019-04-07 19:00:00 9.3 12 Sudoeste 22 Sudoeste 0 -- -- 99
2019-04-07 18:00:00 9.1 16 Sudoeste 29 Sudoeste 0 -- -- 99
2019-04-07 17:00:00 8.9 19 Sudoeste 30 Sudoeste 0 -- -- 98
2019-04-07 16:00:00 8.9 17 Sudoeste 27 Sudoeste 0.4 -- -- 98
2019-04-07 15:00:00 8.6 16 Sudoeste 27 Sudoeste 1 -- -- 96
2019-04-07 14:00:00 9.3 11 Sudoeste 22 Oeste 0.2 -- -- 92
2019-04-07 13:00:00 9 9 Sudoeste 14 Oeste 0 -- -- 91
2019-04-07 12:00:00 7.8 8 Sudoeste 21 Sudoeste 0.2 -- -- 98
2019-04-07 11:00:00 7.1 6 Sudoeste 17 Sudoeste 0 -- -- 94
2019-04-07 10:00:00 6.1 6 Sudoeste 12 Sudoeste 0 -- -- 97
2019-04-07 09:00:00 5.8 5 Sudoeste 10 Sudoeste 0 -- -- 98
2019-04-07 08:00:00 5.4 4 Sudoeste 16 Sudoeste 0.2 -- -- 97
2019-04-07 07:00:00 5.7 4 Oeste 12 Sudoeste 0.2 -- -- 97
2019-04-07 06:00:00 5.7 3 Sudoeste 14 Sudoeste 0 -- -- 97
2019-04-07 05:00:00 5.8 6 Oeste 12 Sudoeste 0.2 -- -- 97
2019-04-07 04:00:00 5.7 6 Sudoeste 17 Sudoeste 0 -- -- 97
2019-04-07 03:00:00 5.7 8 Oeste 23 Oeste 0.6 -- -- 96
2019-04-07 02:00:00 5.7 7 Sudoeste 30 Oeste 0 -- -- 95
2019-04-07 01:00:00 5.7 10 Oeste 19 Oeste 0 -- -- 94
2019-04-07 00:00:00 5.6 4 Sudoeste 21 Oeste 0 -- -- 92
2019-04-06 23:00:00 5.4 8 Oeste 26 Oeste 0 -- -- 92
2019-04-06 22:00:00 5.9 11 Oeste 30 Oeste 0.4 -- -- 90
2019-04-06 21:00:00 7.4 9 Oeste 23 Oeste 0 -- -- 82
2019-04-06 20:00:00 8.1 11 Oeste 34 Oeste 0 -- -- 77
2019-04-06 19:00:00 7.5 15 Oeste 38 Norte 1.4 -- -- 84
2019-04-06 18:00:00 8.2 7 Oeste 23 Noroeste 0.4 -- -- 87
2019-04-06 17:00:00 6.3 10 Oeste 37 Oeste 2.4 -- -- 83
2019-04-06 16:00:00 10.9 13 Noroeste 39 Noroeste 0 -- -- 65
2019-04-06 15:00:00 9.5 16 Oeste 36 Sudoeste 0 -- -- 69
2019-04-06 14:00:00 8.7 17 Oeste 36 Oeste 0 -- -- 78
2019-04-06 13:00:00 6.8 15 Oeste 35 Oeste 0.4 -- -- 90
2019-04-06 12:00:00 5.8 15 Oeste 30 Sudoeste 1 -- -- 95
2019-04-06 11:00:00 6.4 12 Sudoeste 22 Sudoeste 0 -- -- 91
2019-04-06 10:00:00 5.1 12 Sudoeste 23 Sudoeste 0 -- -- 98
2019-04-06 09:00:00 4.7 9 Sudoeste 17 Sudoeste 0 -- -- 98
2019-04-06 08:00:00 4.6 7 Sudoeste 15 Sudoeste 0 -- -- 98
2019-04-06 07:00:00 4.6 8 Sudoeste 17 Sudoeste 0 -- -- 97
2019-04-06 06:00:00 4.8 6 Sudoeste 22 Sudoeste 0 -- -- 96
2019-04-06 05:00:00 4.6 9 Sudoeste 20 Sudoeste 0 -- -- 97
2019-04-06 04:00:00 4.6 6 Oeste 14 Sudoeste 0 -- -- 96
2019-04-06 03:00:00 4.5 7 Sudoeste 20 Sudoeste 0 -- -- 96
2019-04-06 02:00:00 4.2 4 Sudoeste 14 Sudoeste 0 -- -- 96
2019-04-06 01:00:00 4 5 Sudoeste 18 Oeste 0 -- -- 94
2019-04-06 00:00:00 4.4 6 Oeste 20 Oeste 0.4 -- -- 92
2019-04-05 23:00:00 4.8 9 Oeste 27 Oeste 0 -- -- 93
2019-04-05 22:00:00 4.6 9 Oeste 26 Oeste 0 -- -- 92
2019-04-05 21:00:00 4.7 8 Oeste 27 Oeste 1.4 -- -- 90
2019-04-05 20:00:00 5.1 4 Oeste 35 Oeste 3.4 -- -- 88
2019-04-05 19:00:00 9.5 16 Oeste 35 Oeste 0 -- -- 52
2019-04-05 18:00:00 10.1 12 Oeste 36 Oeste 0 -- -- 50
2019-04-05 17:00:00 10.2 16 Oeste 42 Sudoeste 0 -- -- 49
2019-04-05 16:00:00 10.1 19 Oeste 39 Sudoeste 0 -- -- 53
2019-04-05 15:00:00 8.8 17 Oeste 37 Oeste 0 -- -- 63
2019-04-05 14:00:00 7.8 14 Oeste 31 Oeste 0 -- -- 72
2019-04-05 13:00:00 7 14 Oeste 39 Oeste 0 -- -- 79
2019-04-05 12:00:00 6.2 14 Oeste 40 Oeste 1.2 -- -- 89
2019-04-05 11:00:00 7 13 Sudoeste 26 Sur 0.2 -- -- 96
2019-04-05 10:00:00 5.8 6 Sudoeste 11 Sudoeste 0.2 -- -- 96
2019-04-05 09:00:00 5.3 3 Sudoeste 29 Sudoeste 0.8 -- -- 96
2019-04-05 08:00:00 5.9 14 Sudoeste 33 Sudoeste 0 -- -- 95
2019-04-05 07:00:00 6 19 Sudoeste 35 Sudoeste 0.6 -- -- 94
2019-04-05 06:00:00 5.8 12 Sudoeste 26 Sudoeste 1 -- -- 95
2019-04-05 05:00:00 5.8 17 Sudoeste 27 Sudoeste 0 -- -- 86
2019-04-05 04:00:00 5.7 17 Sudoeste 31 Sudoeste 0.2 -- -- 83
2019-04-05 03:00:00 6.5 14 Sudoeste 23 Sudoeste 0 -- -- 79
2019-04-05 02:00:00 7.2 8 Sudoeste 22 Oeste 0 -- -- 71
2019-04-05 01:00:00 7.5 9 Oeste 27 Oeste 0 -- -- 68
2019-04-05 00:00:00 8 11 Oeste 25 Oeste 0 -- -- 62
2019-04-04 23:00:00 9.1 6 Oeste 16 Sudoeste 0 -- -- 46
2019-04-04 22:00:00 10.2 5 Oeste 17 Noroeste 0 -- -- 40
2019-04-04 21:00:00 11.2 6 Noroeste 20 Norte 0 -- -- 39
2019-04-04 20:00:00 13.9 9 Noroeste 25 Noroeste 0 -- -- 34
2019-04-04 19:00:00 15.8 9 Oeste 24 Oeste 0 -- -- 31
2019-04-04 18:00:00 15.9 8 Sudoeste 26 Oeste 0 -- -- 29
2019-04-04 17:00:00 15.6 12 Sudoeste 26 Sudoeste 0 -- -- 30
2019-04-04 16:00:00 15.5 12 Sudoeste 25 Oeste 0 -- -- 32
2019-04-04 15:00:00 14.4 6 Sudoeste 21 Sudoeste 0 -- -- 38
2019-04-04 14:00:00 12.4 6 Nordeste 14 Norte 0 -- -- 41
2019-04-04 13:00:00 10.8 5 Noroeste 15 Nordeste 0 -- -- 49
2019-04-04 12:00:00 8.9 8 Nordeste 19 Nordeste 0 -- -- 53
2019-04-04 11:00:00 6.8 11 Norte 30 Norte 0 -- -- 59
2019-04-04 10:00:00 4.4 20 Norte 33 Norte 0 -- -- 66
2019-04-04 09:00:00 3.2 20 Norte 37 Norte 0 -- -- 66
2019-04-04 08:00:00 2.6 17 Norte 34 Noroeste 0 -- -- 71
2019-04-04 07:00:00 3.3 18 Norte 31 Norte 0 -- -- 69
2019-04-04 06:00:00 3.6 13 Norte 31 Norte 0 -- -- 71
2019-04-04 05:00:00 4.4 15 Norte 29 Norte 0 -- -- 69
2019-04-04 04:00:00 5.4 12 Norte 32 Norte 0 -- -- 62
2019-04-04 03:00:00 6.2 14 Norte 28 Norte 0 -- -- 59
2019-04-04 02:00:00 6.5 16 Norte 33 Norte 0 -- -- 66
2019-04-04 01:00:00 7 19 Norte 33 Norte 0 -- -- 71
2019-04-04 00:00:00 8.3 17 Norte 30 Norte 0 -- -- 66
2019-04-03 23:00:00 10.1 12 Noroeste 27 Noroeste 0 -- -- 59
2019-04-03 22:00:00 10.4 8 Noroeste 15 Norte 0 -- -- 62
2019-04-03 21:00:00 11.4 8 Noroeste 19 Norte 0 -- -- 58
2019-04-03 20:00:00 13.7 13 Noroeste 23 Norte 0 -- -- 54
2019-04-03 19:00:00 15.4 12 Noroeste 32 Oeste 0 -- -- 50
2019-04-03 18:00:00 16.6 14 Oeste 33 Oeste 0 -- -- 44
2019-04-03 17:00:00 17.5 14 Noroeste 33 Noroeste 0 -- -- 42
2019-04-03 16:00:00 18.4 14 Oeste 30 Oeste 0 -- -- 38
2019-04-03 15:00:00 18.1 13 Sudoeste 27 Sudoeste 0 -- -- 43
2019-04-03 14:00:00 16.1 13 Oeste 27 Oeste 0 -- -- 43
2019-04-03 13:00:00 15.4 12 Sudoeste 23 Sudoeste 0 -- -- 47
2019-04-03 12:00:00 14.5 7 Oeste 15 Oeste 0 -- -- 54
2019-04-03 11:00:00 12.4 6 Sudoeste 13 Sudoeste 0 -- -- 62
2019-04-03 10:00:00 9.7 4 Sudoeste 7 Sudoeste 0 -- -- 67
2019-04-03 09:00:00 7.3 0 Calma 12 Norte 0 -- -- 72
2019-04-03 08:00:00 8.5 3 Noroeste 13 Norte 0 -- -- 58
2019-04-03 07:00:00 7.6 0 Calma 4 Oeste 0 -- -- 79
2019-04-03 06:00:00 8.4 0 Calma 3 Noroeste 0 -- -- 84
2019-04-03 05:00:00 10.1 0 Calma 17 Norte 0 -- -- 77
2019-04-03 04:00:00 11.2 10 Norte 18 Norte 0 -- -- 76
2019-04-03 03:00:00 11.7 8 Noroeste 21 Noroeste 0 -- -- 72
2019-04-03 02:00:00 12.7 12 Norte 21 Noroeste 0 -- -- 67
2019-04-03 01:00:00 12.5 5 Noroeste 14 Noroeste 0 -- -- 66
2019-04-03 00:00:00 11.7 2 Noroeste 16 Norte 0 -- -- 71
2019-04-02 23:00:00 12.7 5 Norte 10 Norte 0 -- -- 65
2019-04-02 22:00:00 12.9 4 Norte 9 Norte 0 -- -- 63
2019-04-02 21:00:00 14.6 3 Noroeste 9 Oeste 0 -- -- 63
2019-04-02 20:00:00 17.7 5 Oeste 13 Sudoeste 0 -- -- 48
2019-04-02 19:00:00 17.1 9 Norte 16 Norte 0 -- -- 49
2019-04-02 18:00:00 18.2 5 Noroeste 20 Sudoeste 0 -- -- 46
2019-04-02 17:00:00 18 9 Nordeste 15 Nordeste 0 -- -- 48
2019-04-02 16:00:00 17.6 5 Sur 12 Nordeste 0 -- -- 53
2019-04-02 15:00:00 16.6 5 Sudeste 19 Nordeste 0 -- -- 55
2019-04-02 14:00:00 15.2 9 Norte 18 Norte 0 -- -- 62
2019-04-02 13:00:00 14.7 7 Nordeste 17 Nordeste 0 -- -- 64
2019-04-02 12:00:00 13.2 7 Nordeste 15 Nordeste 0 -- -- 74
2019-04-02 11:00:00 11.3 5 Norte 12 Norte 0 -- -- 83
2019-04-02 10:00:00 8.9 2 Sur 5 Noroeste 0 -- -- 98
2019-04-02 09:00:00 7.4 0 Calma 6 Nordeste 0 -- -- 97
2019-04-02 08:00:00 7.1 0 Calma 4 Noroeste 0 -- -- 95
2019-04-02 07:00:00 8.7 0 Calma 6 Oeste 0 -- -- 94
2019-04-02 06:00:00 9.1 4 Oeste 11 Sudoeste 0 -- -- 95
2019-04-02 05:00:00 9.1 2 Oeste 6 Oeste 0 -- -- 95
2019-04-02 04:00:00 9 3 Oeste 9 Oeste 0 -- -- 94
2019-04-02 03:00:00 9.5 4 Sudoeste 10 Oeste 0 -- -- 92
2019-04-02 02:00:00 9.5 3 Sudoeste 6 Sudoeste 0 -- -- 92
2019-04-02 01:00:00 9.1 0 Calma 5 Oeste 0 -- -- 91
2019-04-02 00:00:00 9.7 4 Sudoeste 9 Oeste 0 -- -- 91
2019-04-01 23:00:00 10.7 3 Sudoeste 12 Oeste 0 -- -- 85
2019-04-01 22:00:00 11.5 4 Oeste 21 Sudoeste 0 -- -- 84
2019-04-01 21:00:00 12 13 Sudoeste 21 Sudoeste 0 -- -- 82
2019-04-01 20:00:00 12.6 12 Sudoeste 27 Sudoeste 0 -- -- 74
2019-04-01 19:00:00 13.8 17 Sur 33 Sudoeste 0 -- -- 72
2019-04-01 18:00:00 15 17 Sudoeste 29 Sudoeste 0 -- -- 67
2019-04-01 17:00:00 15.1 17 Sur 28 Sudoeste 0 -- -- 68
2019-04-01 16:00:00 15.5 15 Sudoeste 24 Sudoeste 0 -- -- 64
2019-04-01 15:00:00 12.7 13 Sur 29 Sur 0 -- -- 74
2019-04-01 14:00:00 13 5 Sudoeste 21 Sudoeste 0.6 -- -- 81
2019-04-01 13:00:00 12.3 14 Sur 23 Sur 0 -- -- 82
2019-04-01 12:00:00 11.7 12 Sudoeste 21 Sur 0 -- -- 87
2019-04-01 11:00:00 10.6 8 Sudoeste 16 Sur 0 -- -- 93
2019-04-01 10:00:00 9.9 6 Sudoeste 14 Sudoeste 0 -- -- 97
2019-04-01 09:00:00 9.1 6 Sudoeste 17 Sudoeste 0 -- -- 97
2019-04-01 08:00:00 9.5 11 Sudoeste 18 Sudoeste 0.4 -- -- 96
2019-04-01 07:00:00 10.1 7 Sudoeste 15 Sur 0 -- -- 96
2019-04-01 06:00:00 10.2 5 Sur 15 Sur 0 -- -- 94
2019-04-01 05:00:00 10.1 9 Sudoeste 17 Sudoeste 0 -- -- 94
2019-04-01 04:00:00 9.9 8 Sudoeste 17 Sur 0 -- -- 93
2019-04-01 03:00:00 10.2 5 Sudoeste 14 Sur 0 -- -- 94
2019-04-01 02:00:00 10.4 5 Sur 9 Sur 0 -- -- 91
2019-04-01 01:00:00 9.5 4 Sudoeste 6 Sudoeste 0 -- -- 90
2019-04-01 00:00:00 9.3 2 Este 7 Sur 0 -- -- 85
2019-03-31 23:00:00 10.2 5 Norte 12 Nordeste 0 -- -- 81
2019-03-31 22:00:00 10.7 3 Nordeste 12 Norte 0 -- -- 78
2019-03-31 21:00:00 11.1 9 Norte 15 Nordeste 0 -- -- 75
2019-03-31 20:00:00 12.7 9 Nordeste 16 Norte 0 -- -- 72
2019-03-31 19:00:00 14.4 9 Nordeste 17 Nordeste 0 -- -- 70
2019-03-31 18:00:00 13.3 8 Norte 21 Noroeste 0.2 -- -- 76
2019-03-31 17:00:00 10.9 10 Oeste 25 Sudoeste 0.2 -- -- 81
2019-03-31 16:00:00 14.2 7 Sudoeste 15 Sur 0 -- -- 73
2019-03-31 15:00:00 15.2 3 Sudeste 10 Este 0 -- -- 68
2019-03-31 14:00:00 14.5 4 Norte 14 Sudoeste 0 -- -- 70
2019-03-31 13:00:00 14.5 6 Sudoeste 17 Sudoeste 0 -- -- 72
2019-03-31 12:00:00 14 8 Sudoeste 14 Sur 0 -- -- 75
2019-03-31 11:00:00 11.6 5 Sudoeste 10 Sur 0 -- -- 83
2019-03-31 10:00:00 9.8 3 Sur 5 Sur 0 -- -- 91
2019-03-31 09:00:00 8.2 2 Nordeste 5 Nordeste 0 -- -- 93
2019-03-31 08:00:00 8.3 5 Norte 8 Nordeste 0 -- -- 92
2019-03-31 07:00:00 8.9 0 Calma 5 Noroeste 0 -- -- 91
2019-03-31 06:00:00 9.2 4 Oeste 5 Oeste 0 -- -- 91
2019-03-31 05:00:00 9.4 0 Calma 12 Nordeste 0 -- -- 87
2019-03-31 03:00:00 10.4 0 Calma 13 Sur 0.8 -- -- 88
2019-03-31 01:00:00 10.7 10 Nordeste 17 Norte 0 -- -- 84
2019-03-31 00:00:00 12.1 4 Nordeste 8 Nordeste 0 -- -- 77
2019-03-30 23:00:00 12.1 4 Norte 13 Sudoeste 0 -- -- 73
2019-03-30 22:00:00 12.7 9 Sudoeste 22 Sur 0 -- -- 68
2019-03-30 21:00:00 14.1 14 Sur 26 Sudoeste 0 -- -- 59
2019-03-30 20:00:00 15.8 10 Sur 23 Sur 0 -- -- 55
2019-03-30 19:00:00 18.4 13 Sur 25 Sudoeste 0 -- -- 49
2019-03-30 18:00:00 20.4 14 Sur 26 Sudeste 0 -- -- 44
2019-03-30 17:00:00 20.8 6 Sur 18 Sur 0 -- -- 39
2019-03-30 16:00:00 20.6 8 Sur 21 Sur 0 -- -- 39
2019-03-30 15:00:00 20.4 9 Sur 20 Sur 0 -- -- 40
2019-03-30 14:00:00 19.2 10 Sur 28 Sur 0 -- -- 44
2019-03-30 13:00:00 17.5 9 Sudeste 20 Este 0 -- -- 51
2019-03-30 12:00:00 15.8 8 Este 25 Sudeste 0 -- -- 56
2019-03-30 11:00:00 14.2 10 Este 21 Este 0 -- -- 61
2019-03-30 10:00:00 11.5 12 Este 21 Este 0 -- -- 69
2019-03-30 09:00:00 8.9 6 Nordeste 21 Sudeste 0 -- -- 84
2019-03-30 08:00:00 7.4 5 Este 20 Sudeste 0 -- -- 88
2019-03-30 07:00:00 7.4 9 Sudeste 19 Este 0 -- -- 86
2019-03-30 06:00:00 7.2 5 Nordeste 13 Este 0 -- -- 89
2019-03-30 05:00:00 7.5 5 Este 10 Sudeste 0 -- -- 87
2019-03-30 04:00:00 7.7 3 Este 10 Sudoeste 0 -- -- 83
2019-03-30 03:00:00 9 7 Sur 16 Sur 0 -- -- 78
2019-03-30 02:00:00 9.8 7 Sur 15 Sudeste 0 -- -- 73
2019-03-30 01:00:00 9.8 8 Sur 21 Sudoeste 0 -- -- 69
2019-03-30 00:00:00 10.4 3 Sudoeste 8 Oeste 0 -- -- 59
2019-03-29 23:00:00 11.7 0 Calma 13 Sudoeste 0 -- -- 60
2019-03-29 22:00:00 13.2 2 Sudoeste 15 Sudeste 0 -- -- 51
2019-03-29 21:00:00 13.5 5 Sudeste 16 Sudeste 0 -- -- 49
2019-03-29 20:00:00 15.2 8 Sur 21 Sur 0 -- -- 46
2019-03-29 19:00:00 17.4 10 Sur 19 Sudoeste 0 -- -- 42
2019-03-29 18:00:00 18.7 10 Sur 18 Sur 0 -- -- 37
2019-03-29 17:00:00 19 5 Oeste 19 Sudoeste 0 -- -- 30
2019-03-29 16:00:00 18.6 8 Sudoeste 26 Sur 0 -- -- 34
2019-03-29 15:00:00 18.1 11 Sudoeste 26 Sudoeste 0 -- -- 35
2019-03-29 14:00:00 17.2 8 Sur 26 Sur 0 -- -- 38
2019-03-29 13:00:00 16.9 14 Sur 24 Sudeste 0 -- -- 37
2019-03-29 12:00:00 15.4 14 Sudeste 25 Sur 0 -- -- 38
2019-03-29 11:00:00 13.6 15 Sudeste 29 Sudeste 0 -- -- 41
2019-03-29 10:00:00 11.3 16 Sudeste 29 Sudeste 0 -- -- 47
2019-03-29 09:00:00 8.6 8 Sudeste 25 Sudeste 0 -- -- 51
2019-03-29 08:00:00 7 9 Sudeste 23 Sudeste 0 -- -- 51
2019-03-29 07:00:00 6.9 9 Este 19 Este 0 -- -- 58
2019-03-29 06:00:00 6.4 6 Sudeste 17 Sudeste 0 -- -- 57
2019-03-29 05:00:00 6.2 0 Calma 6 Sur 0 -- -- 63
2019-03-29 04:00:00 7 0 Calma 17 Sudeste 0 -- -- 65
2019-03-29 03:00:00 8 6 Sudeste 20 Este 0 -- -- 65
2019-03-29 02:00:00 8.2 8 Sudeste 17 Sudeste 0 -- -- 61
2019-03-29 01:00:00 7.7 0 Calma 12 Oeste 0 -- -- 61
2019-03-29 00:00:00 8.4 9 Oeste 15 Oeste 0 -- -- 51
2019-03-28 23:00:00 8.2 2 Sudoeste 6 Sur 0 -- -- 49
2019-03-28 22:00:00 9.2 3 Sudoeste 13 Sudoeste 0 -- -- 46
2019-03-28 21:00:00 10.7 6 Sur 12 Sudoeste 0 -- -- 44
2019-03-28 20:00:00 13 0 Calma 12 Sudeste 0 -- -- 42
2019-03-28 19:00:00 17.3 7 Sur 20 Sur 0 -- -- 31
2019-03-28 18:00:00 18.2 9 Sur 21 Sudeste 0 -- -- 30
2019-03-28 17:00:00 18.4 8 Sudeste 25 Sudeste 0 -- -- 34
2019-03-28 16:00:00 18.4 12 Sur 28 Sudeste 0 -- -- 33
2019-03-28 15:00:00 17.5 13 Sur 27 Sudeste 0 -- -- 34
2019-03-28 14:00:00 17.3 13 Sudeste 32 Sudoeste 0 -- -- 35
2019-03-28 13:00:00 16 14 Sudeste 27 Sudeste 0 -- -- 35
2019-03-28 12:00:00 15.2 14 Sudeste 37 Sudeste 0 -- -- 34
2019-03-28 11:00:00 13.2 13 Sudeste 29 Sudeste 0 -- -- 46
2019-03-28 10:00:00 10.3 8 Este 15 Este 0 -- -- 74
2019-03-28 09:00:00 7.8 5 Este 13 Nordeste 0 -- -- 85
2019-03-28 08:00:00 6.4 8 Nordeste 13 Nordeste 0 -- -- 88
2019-03-28 07:00:00 6.1 9 Nordeste 13 Este 0 -- -- 88
2019-03-28 06:00:00 6.9 4 Este 11 Este 0 -- -- 84
2019-03-28 05:00:00 7 0 Calma 14 Sudeste 0 -- -- 79
2019-03-28 04:00:00 7.5 5 Sur 15 Sur 0 -- -- 78
2019-03-28 03:00:00 7.3 2 Sudoeste 16 Sur 0 -- -- 77
2019-03-28 02:00:00 8.5 10 Sur 17 Sur 0 -- -- 72
2019-03-28 01:00:00 8.7 7 Sudoeste 14 Sur 0 -- -- 63
2019-03-28 00:00:00 9.4 8 Sudoeste 16 Sur 0 -- -- 58
2019-03-27 23:00:00 10.1 5 Sur 16 Sur 0 -- -- 54
2019-03-27 22:00:00 10.2 5 Este 12 Nordeste 0 -- -- 40
2019-03-27 21:00:00 10.8 3 Nordeste 5 Nordeste 0 -- -- 42
2019-03-27 20:00:00 13.9 2 Este 14 Sur 0 -- -- 37
2019-03-27 19:00:00 18.8 9 Sudeste 18 Sudeste 0 -- -- 28
2019-03-27 18:00:00 19.8 9 Sudeste 23 Este 0 -- -- 27
2019-03-27 17:00:00 19.3 11 Nordeste 29 Este 0 -- -- 22
2019-03-27 16:00:00 19.1 8 Nordeste 31 Nordeste 0 -- -- 23
2019-03-27 15:00:00 18.8 10 Este 31 Este 0 -- -- 26
2019-03-27 14:00:00 17.9 13 Este 32 Este 0 -- -- 26
2019-03-27 13:00:00 16.1 13 Nordeste 28 Nordeste 0 -- -- 31
2019-03-27 12:00:00 14.3 10 Este 24 Este 0 -- -- 38
2019-03-27 11:00:00 12.4 12 Nordeste 24 Nordeste 0 -- -- 45
2019-03-27 10:00:00 9.9 15 Nordeste 27 Nordeste 0 -- -- 67
2019-03-27 09:00:00 8.3 13 Nordeste 23 Nordeste 0 -- -- 82
2019-03-27 08:00:00 7.5 9 Nordeste 14 Nordeste 0 -- -- 86
2019-03-27 07:00:00 7.3 5 Sudeste 10 Sudeste 0 -- -- 85
2019-03-27 06:00:00 7.6 5 Sudeste 12 Sur 0 -- -- 83
2019-03-27 05:00:00 8.3 4 Sudeste 12 Sudeste 0 -- -- 83
2019-03-27 04:00:00 8.8 5 Sudeste 12 Sudeste 0 -- -- 83
2019-03-27 03:00:00 10 0 Calma 10 Nordeste 0 -- -- 77
2019-03-27 02:00:00 11.5 4 Este 16 Este 0 -- -- 70
2019-03-27 01:00:00 11.3 5 Sudeste 18 Sudeste 0 -- -- 68
2019-03-27 00:00:00 12.7 10 Sudeste 19 Sur 0 -- -- 59